sensor_id;sensor_type;location;lat;lon;timestamp;P1;durP1;ratioP1;P2;durP2;ratioP2
26038;SDS011;13815;52.374;4.882;2023-03-04T00:00:36;27.63;;;24.98;;
26038;SDS011;13815;52.374;4.882;2023-03-04T00:03:07;25.90;;;23.50;;
26038;SDS011;13815;52.374;4.882;2023-03-04T00:05:35;24.05;;;22.05;;
26038;SDS011;13815;52.374;4.882;2023-03-04T00:08:00;24.73;;;22.33;;
26038;SDS011;13815;52.374;4.882;2023-03-04T00:10:26;24.50;;;22.40;;
26038;SDS011;13815;52.374;4.882;2023-03-04T00:12:51;25.60;;;23.05;;
26038;SDS011;13815;52.374;4.882;2023-03-04T00:15:16;25.52;;;23.35;;
26038;SDS011;13815;52.374;4.882;2023-03-04T00:17:42;24.20;;;22.10;;
26038;SDS011;13815;52.374;4.882;2023-03-04T00:20:07;27.50;;;24.70;;
26038;SDS011;13815;52.374;4.882;2023-03-04T00:22:33;28.58;;;25.88;;
26038;SDS011;13815;52.374;4.882;2023-03-04T00:24:58;28.17;;;25.58;;
26038;SDS011;13815;52.374;4.882;2023-03-04T00:27:24;29.88;;;26.95;;
26038;SDS011;13815;52.374;4.882;2023-03-04T00:29:49;30.30;;;27.27;;
26038;SDS011;13815;52.374;4.882;2023-03-04T00:32:14;31.02;;;27.92;;
26038;SDS011;13815;52.374;4.882;2023-03-04T00:34:42;31.98;;;28.70;;
26038;SDS011;13815;52.374;4.882;2023-03-04T00:37:07;30.92;;;27.73;;
26038;SDS011;13815;52.374;4.882;2023-03-04T00:39:32;32.95;;;28.23;;
26038;SDS011;13815;52.374;4.882;2023-03-04T00:41:58;31.15;;;27.83;;
26038;SDS011;13815;52.374;4.882;2023-03-04T00:44:23;28.70;;;25.83;;
26038;SDS011;13815;52.374;4.882;2023-03-04T00:46:48;28.73;;;25.73;;
26038;SDS011;13815;52.374;4.882;2023-03-04T00:49:14;33.15;;;28.60;;
26038;SDS011;13815;52.374;4.882;2023-03-04T00:51:39;32.30;;;28.80;;
26038;SDS011;13815;52.374;4.882;2023-03-04T00:54:04;39.15;;;32.50;;
26038;SDS011;13815;52.374;4.882;2023-03-04T00:56:30;37.28;;;32.53;;
26038;SDS011;13815;52.374;4.882;2023-03-04T00:58:55;35.08;;;29.88;;
26038;SDS011;13815;52.374;4.882;2023-03-04T01:01:20;40.72;;;33.00;;
26038;SDS011;13815;52.374;4.882;2023-03-04T01:03:46;36.22;;;31.98;;
26038;SDS011;13815;52.374;4.882;2023-03-04T01:06:11;33.88;;;30.17;;
26038;SDS011;13815;52.374;4.882;2023-03-04T01:08:37;33.83;;;29.98;;
26038;SDS011;13815;52.374;4.882;2023-03-04T01:11:02;31.67;;;28.27;;
26038;SDS011;13815;52.374;4.882;2023-03-04T01:13:28;31.77;;;28.38;;
26038;SDS011;13815;52.374;4.882;2023-03-04T01:15:53;30.55;;;27.30;;
26038;SDS011;13815;52.374;4.882;2023-03-04T01:18:19;31.58;;;28.27;;
26038;SDS011;13815;52.374;4.882;2023-03-04T01:20:45;31.38;;;28.20;;
26038;SDS011;13815;52.374;4.882;2023-03-04T01:23:10;31.38;;;28.17;;
26038;SDS011;13815;52.374;4.882;2023-03-04T01:25:35;29.33;;;26.42;;
26038;SDS011;13815;52.374;4.882;2023-03-04T01:28:01;29.88;;;26.63;;
26038;SDS011;13815;52.374;4.882;2023-03-04T01:30:26;28.45;;;25.70;;
26038;SDS011;13815;52.374;4.882;2023-03-04T01:32:51;29.05;;;26.20;;
26038;SDS011;13815;52.374;4.882;2023-03-04T01:35:17;29.45;;;26.55;;
26038;SDS011;13815;52.374;4.882;2023-03-04T01:37:42;29.05;;;26.15;;
26038;SDS011;13815;52.374;4.882;2023-03-04T01:40:08;29.75;;;26.77;;
26038;SDS011;13815;52.374;4.882;2023-03-04T01:42:34;30.55;;;27.52;;
26038;SDS011;13815;52.374;4.882;2023-03-04T01:45:00;29.48;;;26.48;;
26038;SDS011;13815;52.374;4.882;2023-03-04T01:47:29;29.38;;;26.48;;
26038;SDS011;13815;52.374;4.882;2023-03-04T01:49:56;29.50;;;26.60;;
26038;SDS011;13815;52.374;4.882;2023-03-04T01:52:22;28.30;;;25.50;;
26038;SDS011;13815;52.374;4.882;2023-03-04T01:54:47;27.80;;;24.80;;
26038;SDS011;13815;52.374;4.882;2023-03-04T01:57:17;26.38;;;23.85;;
26038;SDS011;13815;52.374;4.882;2023-03-04T01:59:44;25.38;;;23.08;;
26038;SDS011;13815;52.374;4.882;2023-03-04T02:02:10;26.38;;;23.98;;
26038;SDS011;13815;52.374;4.882;2023-03-04T02:04:36;26.00;;;23.70;;
26038;SDS011;13815;52.374;4.882;2023-03-04T02:07:02;25.52;;;23.15;;
26038;SDS011;13815;52.374;4.882;2023-03-04T02:09:28;26.25;;;23.75;;
26038;SDS011;13815;52.374;4.882;2023-03-04T02:11:54;27.00;;;24.35;;
26038;SDS011;13815;52.374;4.882;2023-03-04T02:14:20;27.20;;;24.52;;
26038;SDS011;13815;52.374;4.882;2023-03-04T02:16:46;27.45;;;24.85;;
26038;SDS011;13815;52.374;4.882;2023-03-04T02:19:13;26.55;;;24.05;;
26038;SDS011;13815;52.374;4.882;2023-03-04T02:21:43;27.35;;;24.80;;
26038;SDS011;13815;52.374;4.882;2023-03-04T02:24:11;27.85;;;25.25;;
26038;SDS011;13815;52.374;4.882;2023-03-04T02:26:43;26.75;;;24.25;;
26038;SDS011;13815;52.374;4.882;2023-03-04T02:29:11;28.02;;;25.33;;
26038;SDS011;13815;52.374;4.882;2023-03-04T02:31:38;29.63;;;26.52;;
26038;SDS011;13815;52.374;4.882;2023-03-04T02:34:06;30.42;;;26.60;;
26038;SDS011;13815;52.374;4.882;2023-03-04T02:36:36;29.63;;;26.73;;
26038;SDS011;13815;52.374;4.882;2023-03-04T02:39:06;30.15;;;27.25;;
26038;SDS011;13815;52.374;4.882;2023-03-04T02:41:35;29.85;;;26.95;;
26038;SDS011;13815;52.374;4.882;2023-03-04T02:44:00;30.52;;;27.63;;
26038;SDS011;13815;52.374;4.882;2023-03-04T02:46:26;37.15;;;27.75;;
26038;SDS011;13815;52.374;4.882;2023-03-04T02:48:51;30.63;;;27.50;;
26038;SDS011;13815;52.374;4.882;2023-03-04T02:51:17;31.23;;;28.00;;
26038;SDS011;13815;52.374;4.882;2023-03-04T02:53:42;29.40;;;26.70;;
26038;SDS011;13815;52.374;4.882;2023-03-04T02:56:08;28.85;;;25.63;;
26038;SDS011;13815;52.374;4.882;2023-03-04T02:58:33;29.92;;;26.80;;
26038;SDS011;13815;52.374;4.882;2023-03-04T03:00:58;28.65;;;25.98;;
26038;SDS011;13815;52.374;4.882;2023-03-04T03:03:24;28.75;;;26.00;;
26038;SDS011;13815;52.374;4.882;2023-03-04T03:05:49;29.40;;;26.60;;
26038;SDS011;13815;52.374;4.882;2023-03-04T03:08:14;29.00;;;26.40;;
26038;SDS011;13815;52.374;4.882;2023-03-04T03:10:40;28.83;;;25.90;;
26038;SDS011;13815;52.374;4.882;2023-03-04T03:13:05;28.52;;;25.88;;
26038;SDS011;13815;52.374;4.882;2023-03-04T03:15:30;26.10;;;23.80;;
26038;SDS011;13815;52.374;4.882;2023-03-04T03:17:56;25.90;;;23.70;;
26038;SDS011;13815;52.374;4.882;2023-03-04T03:20:22;25.25;;;23.15;;
26038;SDS011;13815;52.374;4.882;2023-03-04T03:22:47;23.45;;;21.17;;
26038;SDS011;13815;52.374;4.882;2023-03-04T03:25:13;23.42;;;21.52;;
26038;SDS011;13815;52.374;4.882;2023-03-04T03:27:39;22.77;;;20.98;;
26038;SDS011;13815;52.374;4.882;2023-03-04T03:30:05;23.10;;;21.30;;
26038;SDS011;13815;52.374;4.882;2023-03-04T03:32:33;22.38;;;20.67;;
26038;SDS011;13815;52.374;4.882;2023-03-04T03:34:58;21.40;;;19.77;;
26038;SDS011;13815;52.374;4.882;2023-03-04T03:37:23;21.75;;;20.13;;
26038;SDS011;13815;52.374;4.882;2023-03-04T03:39:49;22.25;;;20.55;;
26038;SDS011;13815;52.374;4.882;2023-03-04T03:42:14;22.25;;;20.55;;
26038;SDS011;13815;52.374;4.882;2023-03-04T03:44:39;23.95;;;21.67;;
26038;SDS011;13815;52.374;4.882;2023-03-04T03:47:05;22.90;;;21.02;;
26038;SDS011;13815;52.374;4.882;2023-03-04T03:49:30;24.02;;;21.27;;
26038;SDS011;13815;52.374;4.882;2023-03-04T03:51:56;22.13;;;20.42;;
26038;SDS011;13815;52.374;4.882;2023-03-04T03:54:21;20.63;;;19.13;;
26038;SDS011;13815;52.374;4.882;2023-03-04T03:56:46;20.48;;;18.98;;
26038;SDS011;13815;52.374;4.882;2023-03-04T03:59:11;20.27;;;18.83;;
26038;SDS011;13815;52.374;4.882;2023-03-04T04:01:37;20.08;;;18.67;;
26038;SDS011;13815;52.374;4.882;2023-03-04T04:04:02;20.65;;;18.90;;
26038;SDS011;13815;52.374;4.882;2023-03-04T04:06:28;20.00;;;18.60;;
26038;SDS011;13815;52.374;4.882;2023-03-04T04:08:54;19.13;;;17.83;;
26038;SDS011;13815;52.374;4.882;2023-03-04T04:11:19;19.75;;;18.10;;
26038;SDS011;13815;52.374;4.882;2023-03-04T04:13:45;18.63;;;17.42;;
26038;SDS011;13815;52.374;4.882;2023-03-04T04:16:10;18.20;;;17.10;;
26038;SDS011;13815;52.374;4.882;2023-03-04T04:18:36;17.60;;;16.50;;
26038;SDS011;13815;52.374;4.882;2023-03-04T04:21:01;17.65;;;16.65;;
26038;SDS011;13815;52.374;4.882;2023-03-04T04:23:27;18.92;;;17.05;;
26038;SDS011;13815;52.374;4.882;2023-03-04T04:25:53;16.60;;;15.70;;
26038;SDS011;13815;52.374;4.882;2023-03-04T04:28:19;16.60;;;15.70;;
26038;SDS011;13815;52.374;4.882;2023-03-04T04:30:45;15.90;;;15.10;;
26038;SDS011;13815;52.374;4.882;2023-03-04T04:33:10;14.80;;;14.10;;
26038;SDS011;13815;52.374;4.882;2023-03-04T04:35:35;15.10;;;14.40;;
26038;SDS011;13815;52.374;4.882;2023-03-04T04:38:02;15.50;;;14.50;;
26038;SDS011;13815;52.374;4.882;2023-03-04T04:40:29;15.10;;;14.40;;
26038;SDS011;13815;52.374;4.882;2023-03-04T04:42:54;14.60;;;14.00;;
26038;SDS011;13815;52.374;4.882;2023-03-04T04:45:19;14.70;;;14.10;;
26038;SDS011;13815;52.374;4.882;2023-03-04T04:47:45;14.07;;;13.48;;
26038;SDS011;13815;52.374;4.882;2023-03-04T04:50:10;14.88;;;13.70;;
26038;SDS011;13815;52.374;4.882;2023-03-04T04:52:35;12.75;;;12.25;;
26038;SDS011;13815;52.374;4.882;2023-03-04T04:55:01;12.55;;;12.05;;
26038;SDS011;13815;52.374;4.882;2023-03-04T04:57:27;12.23;;;11.73;;
26038;SDS011;13815;52.374;4.882;2023-03-04T04:59:52;11.52;;;11.13;;
26038;SDS011;13815;52.374;4.882;2023-03-04T05:02:18;11.27;;;10.88;;
26038;SDS011;13815;52.374;4.882;2023-03-04T05:04:43;11.60;;;10.80;;
26038;SDS011;13815;52.374;4.882;2023-03-04T05:07:09;10.73;;;10.32;;
26038;SDS011;13815;52.374;4.882;2023-03-04T05:09:34;10.40;;;10.00;;
26038;SDS011;13815;52.374;4.882;2023-03-04T05:11:59;10.07;;;9.40;;
26038;SDS011;13815;52.374;4.882;2023-03-04T05:14:25;8.77;;;8.48;;
26038;SDS011;13815;52.374;4.882;2023-03-04T05:16:50;8.10;;;7.90;;
26038;SDS011;13815;52.374;4.882;2023-03-04T05:19:17;7.47;;;7.28;;
26038;SDS011;13815;52.374;4.882;2023-03-04T05:21:43;7.10;;;6.90;;
26038;SDS011;13815;52.374;4.882;2023-03-04T05:24:08;6.70;;;6.50;;
26038;SDS011;13815;52.374;4.882;2023-03-04T05:26:33;6.70;;;6.30;;
26038;SDS011;13815;52.374;4.882;2023-03-04T05:28:59;5.70;;;5.60;;
26038;SDS011;13815;52.374;4.882;2023-03-04T05:31:24;6.97;;;5.97;;
26038;SDS011;13815;52.374;4.882;2023-03-04T05:33:50;5.97;;;5.80;;
26038;SDS011;13815;52.374;4.882;2023-03-04T05:36:15;6.20;;;6.00;;
26038;SDS011;13815;52.374;4.882;2023-03-04T05:38:40;5.88;;;5.78;;
26038;SDS011;13815;52.374;4.882;2023-03-04T05:41:06;5.70;;;5.60;;
26038;SDS011;13815;52.374;4.882;2023-03-04T05:43:32;6.32;;;6.13;;
26038;SDS011;13815;52.374;4.882;2023-03-04T05:45:59;6.47;;;6.28;;
26038;SDS011;13815;52.374;4.882;2023-03-04T05:48:26;6.13;;;5.93;;
26038;SDS011;13815;52.374;4.882;2023-03-04T05:50:56;6.40;;;6.20;;
26038;SDS011;13815;52.374;4.882;2023-03-04T05:53:22;6.40;;;6.20;;
26038;SDS011;13815;52.374;4.882;2023-03-04T05:55:48;6.10;;;5.90;;
26038;SDS011;13815;52.374;4.882;2023-03-04T05:58:13;6.65;;;6.25;;
26038;SDS011;13815;52.374;4.882;2023-03-04T06:00:39;6.22;;;6.03;;
26038;SDS011;13815;52.374;4.882;2023-03-04T06:03:05;6.25;;;6.05;;
26038;SDS011;13815;52.374;4.882;2023-03-04T06:05:30;6.10;;;5.90;;
26038;SDS011;13815;52.374;4.882;2023-03-04T06:07:55;6.10;;;5.90;;
26038;SDS011;13815;52.374;4.882;2023-03-04T06:10:21;7.47;;;6.55;;
26038;SDS011;13815;52.374;4.882;2023-03-04T06:12:46;6.30;;;6.00;;
26038;SDS011;13815;52.374;4.882;2023-03-04T06:15:12;5.38;;;5.28;;
26038;SDS011;13815;52.374;4.882;2023-03-04T06:17:38;5.93;;;5.50;;
26038;SDS011;13815;52.374;4.882;2023-03-04T06:20:04;5.07;;;4.97;;
26038;SDS011;13815;52.374;4.882;2023-03-04T06:22:31;5.47;;;5.38;;
26038;SDS011;13815;52.374;4.882;2023-03-04T06:24:56;4.85;;;4.75;;
26038;SDS011;13815;52.374;4.882;2023-03-04T06:27:22;4.50;;;4.40;;
26038;SDS011;13815;52.374;4.882;2023-03-04T06:29:47;4.10;;;4.00;;
26038;SDS011;13815;52.374;4.882;2023-03-04T06:32:12;3.50;;;3.40;;
26038;SDS011;13815;52.374;4.882;2023-03-04T06:34:38;3.40;;;3.30;;
26038;SDS011;13815;52.374;4.882;2023-03-04T06:37:03;2.80;;;2.80;;
26038;SDS011;13815;52.374;4.882;2023-03-04T06:39:28;2.50;;;2.50;;
26038;SDS011;13815;52.374;4.882;2023-03-04T06:41:54;2.00;;;2.00;;
26038;SDS011;13815;52.374;4.882;2023-03-04T06:44:19;3.15;;;2.47;;
26038;SDS011;13815;52.374;4.882;2023-03-04T06:46:44;1.80;;;1.80;;
26038;SDS011;13815;52.374;4.882;2023-03-04T06:49:10;1.50;;;1.50;;
26038;SDS011;13815;52.374;4.882;2023-03-04T06:51:35;3.05;;;1.50;;
26038;SDS011;13815;52.374;4.882;2023-03-04T06:54:01;1.10;;;1.10;;
26038;SDS011;13815;52.374;4.882;2023-03-04T06:56:26;0.90;;;0.90;;
26038;SDS011;13815;52.374;4.882;2023-03-04T06:58:51;0.70;;;0.70;;
26038;SDS011;13815;52.374;4.882;2023-03-04T07:01:21;0.60;;;0.60;;
26038;SDS011;13815;52.374;4.882;2023-03-04T07:03:48;5.18;;;1.13;;
26038;SDS011;13815;52.374;4.882;2023-03-04T07:06:15;0.60;;;0.60;;
26038;SDS011;13815;52.374;4.882;2023-03-04T07:08:42;0.60;;;0.60;;
26038;SDS011;13815;52.374;4.882;2023-03-04T07:11:08;0.50;;;0.50;;
26038;SDS011;13815;52.374;4.882;2023-03-04T07:13:34;0.47;;;0.47;;
26038;SDS011;13815;52.374;4.882;2023-03-04T07:16:02;3.72;;;1.00;;
26038;SDS011;13815;52.374;4.882;2023-03-04T07:18:29;0.50;;;0.50;;
26038;SDS011;13815;52.374;4.882;2023-03-04T07:20:57;0.50;;;0.50;;
26038;SDS011;13815;52.374;4.882;2023-03-04T07:23:22;0.40;;;0.40;;
26038;SDS011;13815;52.374;4.882;2023-03-04T07:25:48;0.50;;;0.50;;
26038;SDS011;13815;52.374;4.882;2023-03-04T07:28:14;1.02;;;0.65;;
26038;SDS011;13815;52.374;4.882;2023-03-04T07:30:39;0.40;;;0.40;;
26038;SDS011;13815;52.374;4.882;2023-03-04T07:33:05;0.50;;;0.50;;
26038;SDS011;13815;52.374;4.882;2023-03-04T07:35:30;0.40;;;0.40;;
26038;SDS011;13815;52.374;4.882;2023-03-04T07:37:55;0.40;;;0.40;;
26038;SDS011;13815;52.374;4.882;2023-03-04T07:40:21;0.30;;;0.30;;
26038;SDS011;13815;52.374;4.882;2023-03-04T07:42:49;0.40;;;0.40;;
26038;SDS011;13815;52.374;4.882;2023-03-04T07:45:15;0.30;;;0.30;;
26038;SDS011;13815;52.374;4.882;2023-03-04T07:47:42;0.30;;;0.30;;
26038;SDS011;13815;52.374;4.882;2023-03-04T07:50:08;1.55;;;0.50;;
26038;SDS011;13815;52.374;4.882;2023-03-04T07:52:37;0.30;;;0.30;;
26038;SDS011;13815;52.374;4.882;2023-03-04T07:55:06;2.83;;;0.57;;
26038;SDS011;13815;52.374;4.882;2023-03-04T07:57:31;1.27;;;0.50;;
26038;SDS011;13815;52.374;4.882;2023-03-04T07:59:57;0.20;;;0.20;;
26038;SDS011;13815;52.374;4.882;2023-03-04T08:02:22;4.38;;;0.63;;
26038;SDS011;13815;52.374;4.882;2023-03-04T08:04:47;0.10;;;0.10;;
26038;SDS011;13815;52.374;4.882;2023-03-04T08:07:13;0.10;;;0.10;;
26038;SDS011;13815;52.374;4.882;2023-03-04T08:09:38;0.10;;;0.10;;
26038;SDS011;13815;52.374;4.882;2023-03-04T08:12:03;0.10;;;0.10;;
26038;SDS011;13815;52.374;4.882;2023-03-04T08:14:29;0.95;;;0.35;;
26038;SDS011;13815;52.374;4.882;2023-03-04T08:16:55;4.40;;;0.57;;
26038;SDS011;13815;52.374;4.882;2023-03-04T08:19:20;0.10;;;0.10;;
26038;SDS011;13815;52.374;4.882;2023-03-04T08:21:45;0.10;;;0.10;;
26038;SDS011;13815;52.374;4.882;2023-03-04T08:24:11;0.00;;;0.00;;
26038;SDS011;13815;52.374;4.882;2023-03-04T08:26:37;0.00;;;0.00;;
26038;SDS011;13815;52.374;4.882;2023-03-04T08:29:06;0.00;;;0.00;;
26038;SDS011;13815;52.374;4.882;2023-03-04T08:31:32;0.00;;;0.00;;
26038;SDS011;13815;52.374;4.882;2023-03-04T08:33:57;0.00;;;0.00;;
26038;SDS011;13815;52.374;4.882;2023-03-04T08:36:22;4.40;;;0.47;;
26038;SDS011;13815;52.374;4.882;2023-03-04T08:38:48;0.00;;;0.00;;
26038;SDS011;13815;52.374;4.882;2023-03-04T08:41:13;0.00;;;0.00;;
26038;SDS011;13815;52.374;4.882;2023-03-04T08:43:39;0.00;;;0.00;;
26038;SDS011;13815;52.374;4.882;2023-03-04T08:46:05;0.00;;;0.00;;
26038;SDS011;13815;52.374;4.882;2023-03-04T08:48:30;0.00;;;0.00;;
26038;SDS011;13815;52.374;4.882;2023-03-04T08:50:56;0.00;;;0.00;;
26038;SDS011;13815;52.374;4.882;2023-03-04T08:53:21;0.00;;;0.00;;
26038;SDS011;13815;52.374;4.882;2023-03-04T08:55:47;0.00;;;0.00;;
26038;SDS011;13815;52.374;4.882;2023-03-04T08:58:13;0.00;;;0.00;;
26038;SDS011;13815;52.374;4.882;2023-03-04T09:00:40;0.00;;;0.00;;
26038;SDS011;13815;52.374;4.882;2023-03-04T09:03:08;0.00;;;0.00;;
26038;SDS011;13815;52.374;4.882;2023-03-04T09:05:35;0.00;;;0.00;;
26038;SDS011;13815;52.374;4.882;2023-03-04T09:08:01;3.53;;;0.45;;
26038;SDS011;13815;52.374;4.882;2023-03-04T09:10:26;0.00;;;0.00;;
26038;SDS011;13815;52.374;4.882;2023-03-04T09:12:52;0.00;;;0.00;;
26038;SDS011;13815;52.374;4.882;2023-03-04T09:15:17;0.00;;;0.00;;
26038;SDS011;13815;52.374;4.882;2023-03-04T09:17:43;0.00;;;0.00;;
26038;SDS011;13815;52.374;4.882;2023-03-04T09:20:08;0.00;;;0.00;;
26038;SDS011;13815;52.374;4.882;2023-03-04T09:22:36;0.00;;;0.00;;
26038;SDS011;13815;52.374;4.882;2023-03-04T09:25:02;0.00;;;0.00;;
26038;SDS011;13815;52.374;4.882;2023-03-04T09:27:27;0.00;;;0.00;;
26038;SDS011;13815;52.374;4.882;2023-03-04T09:29:52;0.00;;;0.00;;
26038;SDS011;13815;52.374;4.882;2023-03-04T09:32:18;0.00;;;0.00;;
26038;SDS011;13815;52.374;4.882;2023-03-04T09:34:43;0.00;;;0.00;;
26038;SDS011;13815;52.374;4.882;2023-03-04T09:37:09;0.00;;;0.00;;
26038;SDS011;13815;52.374;4.882;2023-03-04T09:39:34;0.00;;;0.00;;
26038;SDS011;13815;52.374;4.882;2023-03-04T09:41:59;0.08;;;0.08;;
26038;SDS011;13815;52.374;4.882;2023-03-04T09:44:33;0.00;;;0.00;;
26038;SDS011;13815;52.374;4.882;2023-03-04T09:47:02;0.10;;;0.10;;
26038;SDS011;13815;52.374;4.882;2023-03-04T09:49:29;0.10;;;0.10;;
26038;SDS011;13815;52.374;4.882;2023-03-04T09:52:00;0.30;;;0.30;;
26038;SDS011;13815;52.374;4.882;2023-03-04T09:57:20;0.40;;;0.40;;
26038;SDS011;13815;52.374;4.882;2023-03-04T10:05:21;0.30;;;0.30;;
26038;SDS011;13815;52.374;4.882;2023-03-04T10:07:52;0.75;;;0.40;;
26038;SDS011;13815;52.374;4.882;2023-03-04T10:10:35;0.20;;;0.20;;
26038;SDS011;13815;52.374;4.882;2023-03-04T10:13:02;0.20;;;0.20;;
26038;SDS011;13815;52.374;4.882;2023-03-04T10:18:17;1.65;;;0.40;;
26038;SDS011;13815;52.374;4.882;2023-03-04T10:20:55;0.30;;;0.30;;
26038;SDS011;13815;52.374;4.882;2023-03-04T10:23:24;0.35;;;0.35;;
26038;SDS011;13815;52.374;4.882;2023-03-04T10:25:50;0.40;;;0.40;;
26038;SDS011;13815;52.374;4.882;2023-03-04T10:28:25;0.40;;;0.40;;
26038;SDS011;13815;52.374;4.882;2023-03-04T10:33:32;4.78;;;1.00;;
26038;SDS011;13815;52.374;4.882;2023-03-04T10:36:11;0.50;;;0.50;;
26038;SDS011;13815;52.374;4.882;2023-03-04T10:38:41;4.85;;;0.95;;
26038;SDS011;13815;52.374;4.882;2023-03-04T10:41:14;0.40;;;0.40;;
26038;SDS011;13815;52.374;4.882;2023-03-04T10:43:40;0.50;;;0.50;;
26038;SDS011;13815;52.374;4.882;2023-03-04T10:46:09;0.40;;;0.40;;
26038;SDS011;13815;52.374;4.882;2023-03-04T10:48:35;0.40;;;0.40;;
26038;SDS011;13815;52.374;4.882;2023-03-04T10:51:12;0.60;;;0.60;;
26038;SDS011;13815;52.374;4.882;2023-03-04T10:53:44;0.98;;;0.68;;
26038;SDS011;13815;52.374;4.882;2023-03-04T11:07:34;6.57;;;3.00;;
26038;SDS011;13815;52.374;4.882;2023-03-04T11:10:08;2.00;;;2.00;;
26038;SDS011;13815;52.374;4.882;2023-03-04T11:14:59;4.60;;;1.77;;
26038;SDS011;13815;52.374;4.882;2023-03-04T11:17:38;1.10;;;1.10;;
26038;SDS011;13815;52.374;4.882;2023-03-04T11:20:25;0.90;;;0.90;;
26038;SDS011;13815;52.374;4.882;2023-03-04T11:22:54;3.30;;;1.10;;
26038;SDS011;13815;52.374;4.882;2023-03-04T11:25:37;0.70;;;0.70;;
26038;SDS011;13815;52.374;4.882;2023-03-04T11:28:50;5.78;;;1.30;;
26038;SDS011;13815;52.374;4.882;2023-03-04T11:31:12;0.70;;;0.70;;
26038;SDS011;13815;52.374;4.882;2023-03-04T11:36:28;1.15;;;1.15;;
26038;SDS011;13815;52.374;4.882;2023-03-04T11:38:57;1.00;;;1.00;;
26038;SDS011;13815;52.374;4.882;2023-03-04T11:41:33;2.15;;;1.50;;
26038;SDS011;13815;52.374;4.882;2023-03-04T11:44:00;1.67;;;1.67;;
26038;SDS011;13815;52.374;4.882;2023-03-04T11:51:54;2.20;;;2.20;;
26038;SDS011;13815;52.374;4.882;2023-03-04T11:57:16;3.40;;;2.90;;
26038;SDS011;13815;52.374;4.882;2023-03-04T12:00:01;8.57;;;3.80;;
26038;SDS011;13815;52.374;4.882;2023-03-04T12:02:55;3.13;;;3.05;;
26038;SDS011;13815;52.374;4.882;2023-03-04T12:05:27;3.60;;;3.50;;
26038;SDS011;13815;52.374;4.882;2023-03-04T12:11:04;6.70;;;6.50;;
26038;SDS011;13815;52.374;4.882;2023-03-04T12:13:45;6.93;;;6.72;;
26038;SDS011;13815;52.374;4.882;2023-03-04T12:19:28;9.65;;;9.35;;
26038;SDS011;13815;52.374;4.882;2023-03-04T12:45:19;14.55;;;13.85;;
26038;SDS011;13815;52.374;4.882;2023-03-04T12:48:05;13.38;;;12.77;;
26038;SDS011;13815;52.374;4.882;2023-03-04T12:55:59;23.08;;;20.95;;
26038;SDS011;13815;52.374;4.882;2023-03-04T12:58:27;25.30;;;23.20;;
26038;SDS011;13815;52.374;4.882;2023-03-04T13:01:05;28.63;;;26.00;;
26038;SDS011;13815;52.374;4.882;2023-03-04T13:07:07;36.80;;;26.27;;
26038;SDS011;13815;52.374;4.882;2023-03-04T13:09:42;31.25;;;27.95;;
26038;SDS011;13815;52.374;4.882;2023-03-04T13:12:15;28.05;;;25.20;;
26038;SDS011;13815;52.374;4.882;2023-03-04T13:17:41;29.42;;;26.52;;
26038;SDS011;13815;52.374;4.882;2023-03-04T13:22:55;29.65;;;26.65;;
26038;SDS011;13815;52.374;4.882;2023-03-04T13:44:02;42.17;;;28.98;;
26038;SDS011;13815;52.374;4.882;2023-03-04T13:46:49;31.98;;;27.23;;
26038;SDS011;13815;52.374;4.882;2023-03-04T13:49:18;33.45;;;26.85;;
26038;SDS011;13815;52.374;4.882;2023-03-04T13:51:45;33.00;;;26.75;;
26038;SDS011;13815;52.374;4.882;2023-03-04T13:54:15;37.47;;;28.88;;
26038;SDS011;13815;52.374;4.882;2023-03-04T13:56:44;34.30;;;27.67;;
26038;SDS011;13815;52.374;4.882;2023-03-04T13:59:27;34.30;;;27.58;;
26038;SDS011;13815;52.374;4.882;2023-03-04T14:01:55;32.85;;;26.77;;
26038;SDS011;13815;52.374;4.882;2023-03-04T14:04:40;42.28;;;28.88;;
26038;SDS011;13815;52.374;4.882;2023-03-04T14:07:16;30.83;;;27.55;;
26038;SDS011;13815;52.374;4.882;2023-03-04T14:09:59;36.03;;;26.42;;
26038;SDS011;13815;52.374;4.882;2023-03-04T14:12:32;29.67;;;26.48;;
26038;SDS011;13815;52.374;4.882;2023-03-04T14:15:00;33.20;;;27.00;;
26038;SDS011;13815;52.374;4.882;2023-03-04T14:17:30;31.63;;;28.25;;
26038;SDS011;13815;52.374;4.882;2023-03-04T14:20:01;42.95;;;30.02;;
26038;SDS011;13815;52.374;4.882;2023-03-04T14:25:00;28.57;;;25.57;;
26038;SDS011;13815;52.374;4.882;2023-03-04T14:27:27;32.00;;;28.50;;
26038;SDS011;13815;52.374;4.882;2023-03-04T14:29:54;28.88;;;25.75;;
26038;SDS011;13815;52.374;4.882;2023-03-04T14:32:21;30.00;;;26.70;;
26038;SDS011;13815;52.374;4.882;2023-03-04T14:34:47;32.08;;;27.98;;
26038;SDS011;13815;52.374;4.882;2023-03-04T14:37:20;30.40;;;26.50;;
26038;SDS011;13815;52.374;4.882;2023-03-04T14:39:48;39.38;;;28.65;;
26038;SDS011;13815;52.374;4.882;2023-03-04T14:42:15;31.30;;;27.13;;
26038;SDS011;13815;52.374;4.882;2023-03-04T14:44:48;32.38;;;28.83;;
26038;SDS011;13815;52.374;4.882;2023-03-04T14:47:34;33.90;;;29.00;;
26038;SDS011;13815;52.374;4.882;2023-03-04T14:50:04;41.72;;;28.85;;
26038;SDS011;13815;52.374;4.882;2023-03-04T14:52:36;33.53;;;28.48;;
26038;SDS011;13815;52.374;4.882;2023-03-04T15:00:16;33.95;;;29.25;;
26038;SDS011;13815;52.374;4.882;2023-03-04T15:02:49;32.72;;;28.55;;
26038;SDS011;13815;52.374;4.882;2023-03-04T15:05:25;35.30;;;29.40;;
26038;SDS011;13815;52.374;4.882;2023-03-04T15:07:53;37.10;;;29.80;;
26038;SDS011;13815;52.374;4.882;2023-03-04T15:10:39;47.10;;;30.17;;
26038;SDS011;13815;52.374;4.882;2023-03-04T15:13:05;36.55;;;29.83;;
26038;SDS011;13815;52.374;4.882;2023-03-04T15:15:33;36.15;;;28.65;;
26038;SDS011;13815;52.374;4.882;2023-03-04T15:20:40;38.00;;;29.73;;
26038;SDS011;13815;52.374;4.882;2023-03-04T15:23:16;43.40;;;30.13;;
26038;SDS011;13815;52.374;4.882;2023-03-04T15:25:41;39.30;;;29.75;;
26038;SDS011;13815;52.374;4.882;2023-03-04T15:28:10;40.30;;;30.00;;
26038;SDS011;13815;52.374;4.882;2023-03-04T15:30:40;39.88;;;29.45;;
26038;SDS011;13815;52.374;4.882;2023-03-04T15:33:08;42.42;;;31.38;;
26038;SDS011;13815;52.374;4.882;2023-03-04T15:35:35;52.33;;;31.30;;
26038;SDS011;13815;52.374;4.882;2023-03-04T15:38:00;42.35;;;31.63;;
26038;SDS011;13815;52.374;4.882;2023-03-04T15:42:59;49.25;;;31.75;;
26038;SDS011;13815;52.374;4.882;2023-03-04T15:45:34;41.10;;;30.27;;
26038;SDS011;13815;52.374;4.882;2023-03-04T15:48:01;45.60;;;31.95;;
26038;SDS011;13815;52.374;4.882;2023-03-04T15:50:32;40.53;;;30.88;;
26038;SDS011;13815;52.374;4.882;2023-03-04T15:52:59;41.05;;;32.15;;
26038;SDS011;13815;52.374;4.882;2023-03-04T15:55:26;35.72;;;29.35;;
26038;SDS011;13815;52.374;4.882;2023-03-04T15:57:52;36.00;;;31.67;;
26038;SDS011;13815;52.374;4.882;2023-03-04T16:00:19;38.83;;;30.67;;
26038;SDS011;13815;52.374;4.882;2023-03-04T16:02:45;39.75;;;31.92;;
26038;SDS011;13815;52.374;4.882;2023-03-04T16:05:11;40.95;;;30.85;;
26038;SDS011;13815;52.374;4.882;2023-03-04T16:07:37;46.88;;;31.48;;
26038;SDS011;13815;52.374;4.882;2023-03-04T16:10:05;40.80;;;30.67;;
26038;SDS011;13815;52.374;4.882;2023-03-04T16:12:35;37.20;;;27.85;;
26038;SDS011;13815;52.374;4.882;2023-03-04T16:15:00;39.30;;;29.98;;
26038;SDS011;13815;52.374;4.882;2023-03-04T16:17:26;44.20;;;31.33;;
26038;SDS011;13815;52.374;4.882;2023-03-04T16:19:51;42.45;;;32.80;;
26038;SDS011;13815;52.374;4.882;2023-03-04T16:22:18;41.38;;;30.08;;
26038;SDS011;13815;52.374;4.882;2023-03-04T16:24:49;38.22;;;29.55;;
26038;SDS011;13815;52.374;4.882;2023-03-04T16:27:15;35.95;;;29.23;;
26038;SDS011;13815;52.374;4.882;2023-03-04T16:29:41;37.28;;;30.95;;